createdAt,value
2023-04-19T00:00:46.984Z,98865.44
2023-04-19T00:03:15.710Z,98870.00
2023-04-19T00:05:44.223Z,98873.25
2023-04-19T00:08:12.716Z,98875.72
2023-04-19T00:10:41.144Z,98881.78
2023-04-19T00:13:09.526Z,98883.72
2023-04-19T00:15:39.238Z,98885.06
2023-04-19T00:18:08.362Z,98889.09
2023-04-19T00:20:37.276Z,98888.19
2023-04-19T00:23:05.707Z,98891.41
2023-04-19T00:25:35.540Z,98895.38
2023-04-19T00:28:04.819Z,98897.84
2023-04-19T00:30:33.264Z,98899.22
2023-04-19T00:33:03.141Z,98905.28
2023-04-19T00:35:31.570Z,98907.97
2023-04-19T00:37:59.948Z,98899.88
2023-04-19T00:40:28.753Z,98903.34
2023-04-19T00:42:57.124Z,98907.31
2023-04-19T00:45:26.646Z,98908.69
2023-04-19T00:47:55.598Z,98911.34
2023-04-19T00:50:24.464Z,98910.44
2023-04-19T00:52:55.211Z,98924.41
2023-04-19T00:55:25.079Z,98917.06
2023-04-19T00:57:53.454Z,98918.44
2023-04-19T01:00:21.924Z,98927.31
2023-04-19T01:02:50.349Z,98927.16
2023-04-19T01:05:19.135Z,98933.19
2023-04-19T01:07:47.495Z,98933.06
2023-04-19T01:10:16.529Z,98937.78
2023-04-19T01:12:45.210Z,98952.53
2023-04-19T01:15:13.630Z,98952.34
2023-04-19T01:17:43.254Z,98959.91
2023-04-19T01:20:12.585Z,98956.72
2023-04-19T01:22:41.221Z,98954.28
2023-04-19T01:25:09.935Z,98960.53
2023-04-19T01:27:38.326Z,98950.38
2023-04-19T01:30:07.375Z,98954.53
2023-04-19T01:32:35.811Z,98951.53
2023-04-19T01:35:04.503Z,98956.09
2023-04-19T01:37:36.145Z,98965.72
2023-04-19T01:40:08.085Z,98959.91
2023-04-19T01:42:36.540Z,98956.13
2023-04-19T01:45:05.342Z,98954.63
2023-04-19T01:47:33.723Z,98956.53
2023-04-19T01:50:02.150Z,98954.84
2023-04-19T01:52:30.515Z,98953.34
2023-04-19T01:54:58.867Z,98953.91
2023-04-19T01:57:27.246Z,98959.38
2023-04-19T01:59:55.868Z,98957.16
2023-04-19T02:02:24.461Z,98949.78
2023-04-19T02:04:53.081Z,98958.13
2023-04-19T02:07:21.588Z,98955.84
2023-04-19T02:09:49.921Z,98952.81
2023-04-19T02:12:18.295Z,98956.19
2023-04-19T02:14:46.679Z,98954.72
2023-04-19T02:17:14.994Z,98952.44
2023-04-19T02:19:43.385Z,98959.41
2023-04-19T02:22:11.963Z,98961.47
2023-04-19T02:24:40.338Z,98963.75
2023-04-19T02:27:08.725Z,98958.81
2023-04-19T02:29:37.157Z,98953.88
2023-04-19T02:32:07.195Z,98948.94
2023-04-19T02:34:36.151Z,98953.66
2023-04-19T02:37:04.592Z,98950.22
2023-04-19T02:39:33.220Z,98950.75
2023-04-19T02:42:02.348Z,98954.16
2023-04-19T02:44:30.730Z,98951.88
2023-04-19T02:46:59.091Z,98943.16
2023-04-19T02:49:27.475Z,98943.66
2023-04-19T02:51:55.787Z,98947.63
2023-04-19T02:54:24.142Z,98946.09
2023-04-19T02:56:52.477Z,98936.78
2023-04-19T02:59:20.875Z,98930.28
2023-04-19T03:01:49.228Z,98936.69
2023-04-19T03:04:18.310Z,98930.81
2023-04-19T03:06:46.918Z,98924.31
2023-04-19T03:09:15.255Z,98933.34
2023-04-19T03:11:43.963Z,98923.44
2023-04-19T03:14:12.325Z,98923.22
2023-04-19T03:16:40.720Z,98923.16
2023-04-19T03:19:09.226Z,98913.78
2023-04-19T03:21:37.584Z,98905.81
2023-04-19T03:24:06.241Z,98905.19
2023-04-19T03:26:34.640Z,98895.06
2023-04-19T03:29:03.162Z,98889.13
2023-04-19T03:31:31.804Z,98886.78
2023-04-19T03:34:00.170Z,98888.06
2023-04-19T03:36:28.548Z,98882.88
2023-04-19T03:38:56.916Z,98884.31
2023-04-19T03:41:27.578Z,98883.44
2023-04-19T03:43:56.157Z,98873.34
2023-04-19T03:46:24.642Z,98882.53
2023-04-19T03:48:54.150Z,98876.72
2023-04-19T03:51:22.481Z,98875.13
2023-04-19T03:53:50.823Z,98870.09
2023-04-19T03:56:19.223Z,98857.28
2023-04-19T03:58:47.936Z,98857.19
2023-04-19T04:01:20.879Z,98854.22
2023-04-19T04:03:50.123Z,98851.84
2023-04-19T04:06:18.792Z,98854.44
2023-04-19T04:08:47.257Z,98848.44
2023-04-19T04:11:15.734Z,98839.78
2023-04-19T04:13:44.209Z,98844.66
2023-04-19T04:16:12.599Z,98838.06
2023-04-19T04:18:41.035Z,98835.97
2023-04-19T04:21:09.468Z,98826.72
2023-04-19T04:23:38.864Z,98820.13
2023-04-19T04:26:10.792Z,98817.13
2023-04-19T04:28:39.192Z,98819.13
2023-04-19T04:31:07.647Z,98815.53
2023-04-19T04:33:36.023Z,98801.28
2023-04-19T04:36:04.649Z,98789.72
2023-04-19T04:38:33.173Z,98794.69
2023-04-19T04:41:01.508Z,98787.47
2023-04-19T04:43:30.782Z,98782.22
2023-04-19T04:45:59.374Z,98780.56
2023-04-19T04:48:27.849Z,98776.19
2023-04-19T04:50:56.302Z,98760.41
2023-04-19T04:53:28.110Z,98758.28
2023-04-19T04:55:56.548Z,98758.09
2023-04-19T04:58:24.926Z,98746.38
2023-04-19T05:00:53.437Z,98740.94
2023-04-19T05:03:21.946Z,98737.00
2023-04-19T05:05:50.448Z,98726.03
2023-04-19T05:08:18.791Z,98721.34
2023-04-19T05:10:47.163Z,98730.31
2023-04-19T05:13:15.546Z,98715.72
2023-04-19T05:15:43.930Z,98708.47
2023-04-19T05:18:12.297Z,98703.16
2023-04-19T05:20:40.662Z,98691.56
2023-04-19T05:23:09.157Z,98699.16
2023-04-19T05:25:37.624Z,98686.19
2023-04-19T05:28:06.653Z,98684.47
2023-04-19T05:30:35.064Z,98677.66
2023-04-19T05:33:07.216Z,98673.94
2023-04-19T05:35:35.614Z,98668.69
2023-04-19T05:38:04.423Z,98654.66
2023-04-19T05:40:33.166Z,98658.00
2023-04-19T05:43:01.508Z,98646.09
2023-04-19T05:45:29.972Z,98646.34
2023-04-19T05:47:58.373Z,98643.00
2023-04-19T05:50:26.833Z,98629.09
2023-04-19T05:52:55.211Z,98626.25
2023-04-19T05:55:23.592Z,98608.59
2023-04-19T05:57:52.257Z,98610.22
2023-04-19T06:00:20.827Z,98598.91
2023-04-19T06:02:49.621Z,98598.28
2023-04-19T06:05:18.207Z,98591.47
2023-04-19T06:07:54.499Z,98578.16
2023-04-19T06:10:36.749Z,98580.03
2023-04-19T06:13:16.592Z,98566.22
2023-04-19T06:15:45.023Z,98561.50
2023-04-19T06:18:19.332Z,98556.00
2023-04-19T06:20:48.798Z,98547.53
2023-04-19T06:23:19.220Z,98533.63
2023-04-19T06:25:51.391Z,98526.03
2023-04-19T06:28:20.539Z,98528.53
2023-04-19T06:30:49.741Z,98523.66
2023-04-19T06:33:18.312Z,98516.06
2023-04-19T06:35:46.940Z,98510.44
2023-04-19T06:38:15.572Z,98498.47
2023-04-19T06:40:44.307Z,98492.53
2023-04-19T06:43:13.005Z,98486.34
2023-04-19T06:45:41.664Z,98481.25
2023-04-19T06:48:10.504Z,98465.47
2023-04-19T06:50:39.200Z,98465.56
2023-04-19T06:53:07.855Z,98455.72
2023-04-19T06:55:36.563Z,98457.34
2023-04-19T06:58:05.397Z,98447.25
2023-04-19T07:00:34.110Z,98443.31
2023-04-19T07:03:02.985Z,98435.97
2023-04-19T07:05:33.101Z,98426.53
2023-04-19T07:08:01.885Z,98423.56
2023-04-19T07:10:30.793Z,98416.34
2023-04-19T07:12:59.418Z,98420.72
2023-04-19T07:15:28.332Z,98408.59
2023-04-19T07:17:57.044Z,98403.88
2023-04-19T07:20:25.921Z,98395.81
2023-04-19T07:22:54.603Z,98387.63
2023-04-19T07:25:23.682Z,98382.78
2023-04-19T07:27:55.619Z,98376.66
2023-04-19T07:30:24.931Z,98374.94
2023-04-19T07:32:54.737Z,98370.69
2023-04-19T07:35:24.118Z,98367.09
2023-04-19T07:37:52.820Z,98362.13
2023-04-19T07:40:21.643Z,98350.06
2023-04-19T07:42:50.393Z,98348.81
2023-04-19T07:45:19.204Z,98351.19
2023-04-19T07:47:47.901Z,98345.69
2023-04-19T07:50:17.176Z,98344.31
2023-04-19T07:52:45.937Z,98339.34
2023-04-19T07:55:14.679Z,98337.84
2023-04-19T07:57:47.279Z,98330.41
2023-04-19T08:00:20.041Z,98324.09
2023-04-19T08:02:50.065Z,98317.78
2023-04-19T08:05:19.615Z,98311.84
2023-04-19T08:07:48.387Z,98300.19
2023-04-19T08:10:17.418Z,98293.84
2023-04-19T08:12:57.372Z,98300.91
2023-04-19T08:18:06.305Z,98282.16
2023-04-19T08:20:35.585Z,98279.16
2023-04-19T08:23:18.121Z,98281.91
2023-04-19T08:25:50.125Z,98271.00
2023-04-19T08:28:19.732Z,98262.31
2023-04-19T08:30:48.452Z,98260.09
2023-04-19T08:33:17.563Z,98257.09
2023-04-19T08:35:47.074Z,98244.81
2023-04-19T08:38:15.811Z,98251.91
2023-04-19T08:40:56.318Z,98245.44
2023-04-19T08:43:29.796Z,98243.97
2023-04-19T08:46:00.091Z,98239.63
2023-04-19T08:48:29.778Z,98240.88
2023-04-19T08:51:05.553Z,98231.44
2023-04-19T08:53:38.414Z,98232.03
2023-04-19T08:56:18.006Z,98214.75
2023-04-19T09:04:01.127Z,98216.31
2023-04-19T09:06:38.790Z,98221.78
2023-04-19T09:09:33.956Z,98211.50
2023-04-19T09:12:20.995Z,98217.84
2023-04-19T09:15:01.176Z,98213.22
2023-04-19T09:17:31.605Z,98211.75
2023-04-19T09:20:00.695Z,98208.66
2023-04-19T09:22:29.456Z,98209.91
2023-04-19T09:27:35.393Z,98204.59
2023-04-19T09:30:06.217Z,98194.53
2023-04-19T09:33:01.272Z,98190.94
2023-04-19T09:35:50.577Z,98195.03
2023-04-19T09:38:19.366Z,98196.91
2023-04-19T09:40:48.747Z,98190.06
2023-04-19T09:43:57.525Z,98193.41
2023-04-19T09:46:53.609Z,98193.69
2023-04-19T09:49:37.598Z,98196.06
2023-04-19T09:52:16.479Z,98191.97
2023-04-19T09:54:47.192Z,98187.38
2023-04-19T09:57:17.069Z,98192.81
2023-04-19T09:59:45.748Z,98188.97
2023-04-19T10:02:16.294Z,98188.09
2023-04-19T10:07:30.263Z,98191.34
2023-04-19T10:10:16.043Z,98191.69
2023-04-19T10:15:24.931Z,98190.31
2023-04-19T10:17:54.155Z,98195.16
2023-04-19T10:20:28.575Z,98198.50
2023-04-19T10:22:57.710Z,98208.91
2023-04-19T10:25:32.967Z,98212.09
2023-04-19T10:28:01.730Z,98208.22
2023-04-19T10:30:30.599Z,98212.06
2023-04-19T10:33:05.046Z,98211.69
2023-04-19T10:35:39.754Z,98216.97
2023-04-19T10:38:13.806Z,98225.13
2023-04-19T10:40:57.609Z,98238.84
2023-04-19T10:43:30.875Z,98234.88
2023-04-19T10:46:04.351Z,98240.72
2023-04-19T10:48:39.757Z,98247.25
2023-04-19T10:51:16.843Z,98246.13
2023-04-19T10:53:48.157Z,98246.94
2023-04-19T10:56:37.982Z,98251.19
2023-04-19T10:59:09.226Z,98251.13
2023-04-19T11:01:47.670Z,98250.41
2023-04-19T11:04:21.765Z,98257.63
2023-04-19T11:06:53.849Z,98260.81
2023-04-19T11:09:32.479Z,98263.84
2023-04-19T11:12:03.327Z,98268.34
2023-04-19T11:14:34.200Z,98265.09
2023-04-19T11:17:15.958Z,98261.81
2023-04-19T11:19:55.725Z,98262.72
2023-04-19T11:22:41.673Z,98269.47
2023-04-19T11:25:22.944Z,98275.47
2023-04-19T11:27:54.170Z,98285.06
2023-04-19T11:30:30.801Z,98281.06
2023-04-19T11:33:00.218Z,98287.81
2023-04-19T11:35:31.690Z,98288.22
2023-04-19T11:38:01.608Z,98290.94
2023-04-19T11:40:30.376Z,98292.88
2023-04-19T11:43:04.286Z,98296.78
2023-04-19T11:45:39.763Z,98302.91
2023-04-19T11:48:19.087Z,98306.19
2023-04-19T11:50:50.595Z,98308.88
2023-04-19T11:53:22.618Z,98308.13
2023-04-19T11:55:53.751Z,98305.16
2023-04-19T11:58:38.242Z,98309.94
2023-04-19T12:01:15.344Z,98314.69
2023-04-19T12:04:02.675Z,98325.16
2023-04-19T12:06:33.163Z,98322.03
2023-04-19T12:09:02.048Z,98321.59
2023-04-19T12:11:50.100Z,98326.38
2023-04-19T12:14:22.524Z,98332.50
2023-04-19T12:17:12.019Z,98340.13
2023-04-19T12:19:47.161Z,98349.84
2023-04-19T12:22:20.747Z,98351.00
2023-04-19T12:24:52.513Z,98353.56
2023-04-19T12:27:21.714Z,98363.88
2023-04-19T12:29:50.626Z,98380.56
2023-04-19T12:32:19.287Z,98385.94
2023-04-19T12:34:48.435Z,98389.22
2023-04-19T12:37:17.118Z,98381.91
2023-04-19T12:39:45.748Z,98388.75
2023-04-19T12:42:14.458Z,98397.09
2023-04-19T12:44:43.147Z,98393.34
2023-04-19T12:47:11.797Z,98396.03
2023-04-19T12:49:40.457Z,98409.94
2023-04-19T12:52:09.700Z,98413.94
2023-04-19T12:54:38.363Z,98416.63
2023-04-19T12:57:07.035Z,98419.91
2023-04-19T12:59:35.718Z,98429.75
2023-04-19T13:02:04.733Z,98422.59
2023-04-19T13:04:33.549Z,98423.94
2023-04-19T13:07:02.473Z,98417.34
2023-04-19T13:09:31.659Z,98422.13
2023-04-19T13:12:00.673Z,98427.59
2023-04-19T13:14:30.144Z,98425.94
2023-04-19T13:16:58.982Z,98438.47
2023-04-19T13:19:28.434Z,98431.88
2023-04-19T13:21:57.081Z,98437.22
2023-04-19T13:24:25.944Z,98435.56
2023-04-19T13:26:54.779Z,98440.34
2023-04-19T13:29:23.872Z,98442.28
2023-04-19T13:31:52.772Z,98450.63
2023-04-19T13:34:22.198Z,98446.88
2023-04-19T13:36:51.269Z,98454.59
2023-04-19T13:39:20.128Z,98451.63
2023-04-19T13:41:48.943Z,98442.34
2023-04-19T13:44:18.194Z,98457.28
2023-04-19T13:46:47.306Z,98460.13
2023-04-19T13:49:15.979Z,98461.63
2023-04-19T13:51:50.230Z,98461.06
2023-04-19T13:54:21.002Z,98457.63
2023-04-19T13:56:52.150Z,98469.13
2023-04-19T13:59:22.807Z,98465.72
2023-04-19T14:01:51.867Z,98479.31
2023-04-19T14:04:21.503Z,98482.47
2023-04-19T14:06:50.891Z,98480.84
2023-04-19T14:09:19.652Z,98479.28
2023-04-19T14:11:49.894Z,98475.44
2023-04-19T14:14:19.016Z,98480.09
2023-04-19T14:16:47.936Z,98470.56
2023-04-19T14:19:16.736Z,98480.56
2023-04-19T14:21:45.446Z,98483.41
2023-04-19T14:24:14.470Z,98486.25
2023-04-19T14:26:43.489Z,98484.16
2023-04-19T14:29:12.685Z,98479.81
2023-04-19T14:31:41.445Z,98484.75
2023-04-19T14:34:10.284Z,98491.00
2023-04-19T14:36:38.904Z,98494.44
2023-04-19T14:39:07.994Z,98504.13
2023-04-19T14:41:36.846Z,98506.97
2023-04-19T14:44:05.517Z,98508.31
2023-04-19T14:46:34.265Z,98505.47
2023-04-19T14:49:08.951Z,98521.75
2023-04-19T14:51:37.939Z,98523.84
2023-04-19T14:54:06.779Z,98523.09
2023-04-19T14:56:35.573Z,98515.75
2023-04-19T14:59:04.508Z,98523.31
2023-04-19T15:01:34.216Z,98523.91
2023-04-19T15:04:03.312Z,98529.28
2023-04-19T15:06:32.919Z,98533.25
2023-04-19T15:09:01.695Z,98534.28
2023-04-19T15:11:30.581Z,98526.19
2023-04-19T15:13:59.275Z,98540.06
2023-04-19T15:16:28.082Z,98536.09
2023-04-19T15:18:56.972Z,98532.94
2023-04-19T15:21:25.688Z,98528.28
2023-04-19T15:23:54.485Z,98531.53
2023-04-19T15:26:24.818Z,98522.56
2023-04-19T15:28:53.465Z,98526.56
2023-04-19T15:31:22.295Z,98524.91
2023-04-19T15:33:51.325Z,98521.69
2023-04-19T15:36:20.149Z,98530.63
2023-04-19T15:38:48.979Z,98532.53
2023-04-19T15:41:18.865Z,98525.34
2023-04-19T15:43:47.616Z,98522.34
2023-04-19T15:46:17.024Z,98525.00
2023-04-19T15:48:47.899Z,98519.34
2023-04-19T15:51:17.109Z,98513.50
2023-04-19T15:53:46.554Z,98524.69
2023-04-19T15:56:15.333Z,98522.44
2023-04-19T15:58:44.258Z,98522.28
2023-04-19T16:01:14.931Z,98521.34
2023-04-19T16:03:46.166Z,98522.69
2023-04-19T16:06:14.996Z,98523.28
2023-04-19T16:08:43.779Z,98514.56
2023-04-19T16:11:12.490Z,98522.31
2023-04-19T16:13:41.153Z,98529.31
2023-04-19T16:16:09.863Z,98523.50
2023-04-19T16:18:38.545Z,98514.81
2023-04-19T16:21:07.599Z,98509.75
2023-04-19T16:23:36.303Z,98510.16
2023-04-19T16:26:05.112Z,98507.75
2023-04-19T16:28:33.720Z,98505.50
2023-04-19T16:31:02.311Z,98506.66
2023-04-19T16:33:31.077Z,98508.56
2023-04-19T16:35:59.748Z,98507.66
2023-04-19T16:38:28.461Z,98513.31
2023-04-19T16:40:57.258Z,98511.06
2023-04-19T16:43:25.941Z,98506.53
2023-04-19T16:45:54.568Z,98499.38
2023-04-19T16:48:23.452Z,98504.88
2023-04-19T16:50:52.938Z,98498.25
2023-04-19T16:53:22.117Z,98491.84
2023-04-19T16:55:50.823Z,98482.44
2023-04-19T16:58:19.403Z,98480.94
2023-04-19T17:00:49.407Z,98473.19
2023-04-19T17:03:18.174Z,98471.69
2023-04-19T17:05:47.080Z,98479.44
2023-04-19T17:08:15.933Z,98468.84
2023-04-19T17:10:44.631Z,98463.00
2023-04-19T17:13:13.399Z,98465.84
2023-04-19T17:15:42.204Z,98455.09
2023-04-19T17:18:11.086Z,98462.09
2023-04-19T17:20:40.086Z,98456.25
2023-04-19T17:23:08.791Z,98451.19
2023-04-19T17:25:37.524Z,98449.50
2023-04-19T17:28:06.962Z,98448.59
2023-04-19T17:30:35.837Z,98445.56
2023-04-19T17:33:04.549Z,98447.66
2023-04-19T17:35:33.293Z,98441.81
2023-04-19T17:38:02.076Z,98442.41
2023-04-19T17:40:30.879Z,98440.16
2023-04-19T17:42:59.739Z,98439.41
2023-04-19T17:45:28.412Z,98437.16
2023-04-19T17:47:57.244Z,98432.25
2023-04-19T17:50:27.549Z,98436.41
2023-04-19T17:52:56.931Z,98436.41
2023-04-19T17:55:26.792Z,98434.31
2023-04-19T17:57:55.448Z,98433.56
2023-04-19T18:00:24.433Z,98440.56
2023-04-19T18:02:53.564Z,98432.06
2023-04-19T18:05:22.588Z,98425.06
2023-04-19T18:07:51.450Z,98418.50
2023-04-19T18:10:20.121Z,98427.00
2023-04-19T18:12:48.827Z,98419.06
2023-04-19T18:15:17.647Z,98415.31
2023-04-19T18:17:46.364Z,98420.81
2023-04-19T18:20:15.270Z,98419.31
2023-04-19T18:22:44.103Z,98429.72
2023-04-19T18:25:12.763Z,98428.06
2023-04-19T18:27:41.446Z,98422.22
2023-04-19T18:30:10.447Z,98426.38
2023-04-19T18:32:39.434Z,98415.63
2023-04-19T18:35:12.382Z,98416.94
2023-04-19T18:37:41.299Z,98413.94
2023-04-19T18:40:10.435Z,98420.19
2023-04-19T18:42:39.126Z,98410.19
2023-04-19T18:45:08.677Z,98407.00
2023-04-19T18:47:37.376Z,98404.00
2023-04-19T18:50:07.631Z,98403.66
2023-04-19T18:52:40.069Z,98400.66
2023-04-19T18:55:09.620Z,98404.66
2023-04-19T18:57:39.868Z,98396.56
2023-04-19T19:00:12.310Z,98398.44
2023-04-19T19:02:41.639Z,98392.78
2023-04-19T19:05:13.716Z,98388.66
2023-04-19T19:07:43.343Z,98390.72
2023-04-19T19:10:18.487Z,98379.97
2023-04-19T19:12:50.217Z,98383.75
2023-04-19T19:15:19.289Z,98384.50
2023-04-19T19:17:49.730Z,98382.41
2023-04-19T19:20:20.243Z,98386.56
2023-04-19T19:22:49.242Z,98374.50
2023-04-19T19:25:18.156Z,98364.69
2023-04-19T19:28:06.177Z,98373.72
2023-04-19T19:30:40.742Z,98365.25
2023-04-19T19:33:09.688Z,98370.72
2023-04-19T19:35:39.735Z,98373.38
2023-04-19T19:38:08.918Z,98375.28
2023-04-19T19:40:53.535Z,98362.47
2023-04-19T19:43:26.218Z,98371.53
2023-04-19T19:45:54.875Z,98364.97
2023-04-19T19:48:25.213Z,98372.69
2023-04-19T19:51:24.653Z,98375.38
2023-04-19T19:53:43.120Z,98375.19
2023-04-19T19:56:18.978Z,98374.44
2023-04-19T19:58:51.903Z,98381.44
2023-04-19T20:01:22.531Z,98378.59
2023-04-19T20:03:52.299Z,98380.69
2023-04-19T20:08:52.802Z,98379.75
2023-04-19T20:11:21.772Z,98376.75
2023-04-19T20:13:51.197Z,98373.16
2023-04-19T20:16:20.815Z,98375.06
2023-04-19T20:18:53.666Z,98373.56
2023-04-19T20:21:22.581Z,98380.34
2023-04-19T20:23:51.844Z,98373.03
2023-04-19T20:26:20.627Z,98379.81
2023-04-19T20:28:50.333Z,98379.63
2023-04-19T20:31:19.196Z,98383.63
2023-04-19T20:33:48.096Z,98388.34
2023-04-19T20:36:17.527Z,98393.81
2023-04-19T20:38:46.842Z,98393.66
2023-04-19T20:41:15.270Z,98394.81
2023-04-19T20:43:43.733Z,98398.94
2023-04-19T20:46:12.611Z,98404.44
2023-04-19T20:48:41.024Z,98398.56
2023-04-19T20:51:09.438Z,98403.47
2023-04-19T20:53:37.772Z,98397.66
2023-04-19T20:56:06.692Z,98396.72
2023-04-19T20:58:35.517Z,98399.38
2023-04-19T21:01:03.886Z,98394.28
2023-04-19T21:03:32.522Z,98403.91
2023-04-19T21:06:01.265Z,98401.66
2023-04-19T21:08:29.721Z,98414.88
2023-04-19T21:10:58.104Z,98414.69
2023-04-19T21:13:26.525Z,98422.41
2023-04-19T21:15:54.977Z,98417.34
2023-04-19T21:18:23.343Z,98419.97
2023-04-19T21:20:51.650Z,98426.97
2023-04-19T21:23:20.070Z,98412.66
2023-04-19T21:25:48.486Z,98428.84
2023-04-19T21:28:17.024Z,98423.19
2023-04-19T21:30:45.448Z,98432.78
2023-04-19T21:33:14.064Z,98429.22
2023-04-19T21:35:42.436Z,98433.38
2023-04-19T21:38:10.812Z,98438.84
2023-04-19T21:40:39.171Z,98436.00
2023-04-19T21:43:07.500Z,98442.81
2023-04-19T21:45:35.853Z,98448.25
2023-04-19T21:48:04.347Z,98452.97
2023-04-19T21:50:32.733Z,98439.22
2023-04-19T21:53:01.077Z,98453.34
2023-04-19T21:55:29.511Z,98456.75
2023-04-19T21:57:57.900Z,98446.03
2023-04-19T22:00:26.378Z,98458.63
2023-04-19T22:02:55.303Z,98449.22
2023-04-19T22:05:23.752Z,98448.28
2023-04-19T22:07:52.243Z,98453.19
2023-04-19T22:10:21.106Z,98455.06
2023-04-19T22:12:57.768Z,98457.53
2023-04-19T22:15:28.837Z,98458.09
2023-04-19T22:18:00.328Z,98467.69
2023-04-19T22:20:28.723Z,98464.50
2023-04-19T22:22:57.332Z,98466.38
2023-04-19T22:25:25.779Z,98473.94
2023-04-19T22:27:54.323Z,98473.00
2023-04-19T22:30:22.769Z,98480.53
2023-04-19T22:32:51.276Z,98478.81
2023-04-19T22:35:22.573Z,98482.19
2023-04-19T22:37:51.474Z,98497.63
2023-04-19T22:40:19.867Z,98493.88
2023-04-19T22:42:48.292Z,98501.59
2023-04-19T22:45:16.804Z,98506.28
2023-04-19T22:47:45.279Z,98510.25
2023-04-19T22:50:13.740Z,98524.16
2023-04-19T22:52:42.671Z,98521.13
2023-04-19T22:55:11.817Z,98528.84
2023-04-19T22:57:40.365Z,98534.31
2023-04-19T23:00:11.569Z,98532.97
2023-04-19T23:02:40.193Z,98535.63
2023-04-19T23:05:09.185Z,98535.63
2023-04-19T23:07:37.703Z,98535.63
2023-04-19T23:10:06.615Z,98543.34
2023-04-19T23:12:35.412Z,98534.88
2023-04-19T23:15:04.829Z,98537.69
2023-04-19T23:17:34.106Z,98539.94
2023-04-19T23:20:02.544Z,98545.59
2023-04-19T23:22:30.899Z,98548.59
2023-04-19T23:24:59.350Z,98555.00
2023-04-19T23:27:27.951Z,98550.84
2023-04-19T23:29:56.505Z,98553.16
2023-04-19T23:32:24.933Z,98559.53
2023-04-19T23:34:53.373Z,98565.38
2023-04-19T23:37:22.017Z,98568.94
2023-04-19T23:39:50.333Z,98569.13
2023-04-19T23:42:18.874Z,98575.72
2023-04-19T23:44:47.208Z,98580.81
2023-04-19T23:47:15.988Z,98588.72
2023-04-19T23:49:44.346Z,98586.06
2023-04-19T23:52:13.513Z,98591.94
2023-04-19T23:54:42.034Z,98594.94
2023-04-19T23:57:10.406Z,98595.31
2023-04-19T23:59:38.743Z,98600.41
